sensor_id;sensor_type;location;lat;lon;timestamp;P1;durP1;ratioP1;P2;durP2;ratioP2
4448;SDS011;2237;51.870;6.160;2023-07-13T00:01:48;4.28;;;1.13;;
4448;SDS011;2237;51.870;6.160;2023-07-13T00:04:20;7.60;;;1.83;;
4448;SDS011;2237;51.870;6.160;2023-07-13T00:06:51;7.82;;;1.42;;
4448;SDS011;2237;51.870;6.160;2023-07-13T00:09:18;3.80;;;1.20;;
4448;SDS011;2237;51.870;6.160;2023-07-13T00:11:45;3.80;;;1.10;;
4448;SDS011;2237;51.870;6.160;2023-07-13T00:14:17;5.93;;;1.23;;
4448;SDS011;2237;51.870;6.160;2023-07-13T00:16:44;8.20;;;1.25;;
4448;SDS011;2237;51.870;6.160;2023-07-13T00:19:11;3.22;;;1.30;;
4448;SDS011;2237;51.870;6.160;2023-07-13T00:21:39;8.35;;;1.30;;
4448;SDS011;2237;51.870;6.160;2023-07-13T00:24:07;5.50;;;0.98;;
4448;SDS011;2237;51.870;6.160;2023-07-13T00:26:39;7.53;;;1.10;;
4448;SDS011;2237;51.870;6.160;2023-07-13T00:29:06;3.53;;;1.20;;
4448;SDS011;2237;51.870;6.160;2023-07-13T00:31:35;6.97;;;0.98;;
4448;SDS011;2237;51.870;6.160;2023-07-13T00:34:02;5.88;;;1.25;;
4448;SDS011;2237;51.870;6.160;2023-07-13T00:36:29;3.53;;;1.10;;
4448;SDS011;2237;51.870;6.160;2023-07-13T00:38:56;6.68;;;1.30;;
4448;SDS011;2237;51.870;6.160;2023-07-13T00:41:23;3.15;;;1.25;;
4448;SDS011;2237;51.870;6.160;2023-07-13T00:43:49;6.57;;;1.25;;
4448;SDS011;2237;51.870;6.160;2023-07-13T00:46:21;6.05;;;1.05;;
4448;SDS011;2237;51.870;6.160;2023-07-13T00:48:53;4.22;;;0.98;;
4448;SDS011;2237;51.870;6.160;2023-07-13T00:51:24;5.00;;;1.13;;
4448;SDS011;2237;51.870;6.160;2023-07-13T00:53:55;6.68;;;1.45;;
4448;SDS011;2237;51.870;6.160;2023-07-13T00:56:25;5.93;;;0.90;;
4448;SDS011;2237;51.870;6.160;2023-07-13T00:58:52;7.38;;;0.95;;
4448;SDS011;2237;51.870;6.160;2023-07-13T01:01:19;3.90;;;1.20;;
4448;SDS011;2237;51.870;6.160;2023-07-13T01:03:46;5.25;;;1.20;;
4448;SDS011;2237;51.870;6.160;2023-07-13T01:06:12;5.28;;;0.90;;
4448;SDS011;2237;51.870;6.160;2023-07-13T01:08:39;4.47;;;1.20;;
4448;SDS011;2237;51.870;6.160;2023-07-13T01:11:06;6.30;;;1.30;;
4448;SDS011;2237;51.870;6.160;2023-07-13T01:13:34;5.70;;;1.30;;
4448;SDS011;2237;51.870;6.160;2023-07-13T01:16:02;7.95;;;2.10;;
4448;SDS011;2237;51.870;6.160;2023-07-13T01:18:38;7.57;;;1.50;;
4448;SDS011;2237;51.870;6.160;2023-07-13T01:21:04;5.13;;;1.92;;
4448;SDS011;2237;51.870;6.160;2023-07-13T01:23:31;5.93;;;1.60;;
4448;SDS011;2237;51.870;6.160;2023-07-13T01:25:58;4.45;;;1.30;;
4448;SDS011;2237;51.870;6.160;2023-07-13T01:28:26;3.33;;;1.23;;
4448;SDS011;2237;51.870;6.160;2023-07-13T01:30:55;4.32;;;1.30;;
4448;SDS011;2237;51.870;6.160;2023-07-13T01:33:23;8.75;;;2.13;;
4448;SDS011;2237;51.870;6.160;2023-07-13T01:35:50;6.07;;;1.42;;
4448;SDS011;2237;51.870;6.160;2023-07-13T01:38:20;5.25;;;1.77;;
4448;SDS011;2237;51.870;6.160;2023-07-13T01:40:48;6.97;;;1.58;;
4448;SDS011;2237;51.870;6.160;2023-07-13T01:43:15;5.15;;;1.30;;
4448;SDS011;2237;51.870;6.160;2023-07-13T01:45:42;5.28;;;1.58;;
4448;SDS011;2237;51.870;6.160;2023-07-13T01:48:12;6.43;;;1.52;;
4448;SDS011;2237;51.870;6.160;2023-07-13T01:50:39;7.90;;;1.77;;
4448;SDS011;2237;51.870;6.160;2023-07-13T01:53:06;7.10;;;1.80;;
4448;SDS011;2237;51.870;6.160;2023-07-13T01:55:33;4.63;;;1.48;;
4448;SDS011;2237;51.870;6.160;2023-07-13T01:58:00;8.80;;;1.73;;
4448;SDS011;2237;51.870;6.160;2023-07-13T02:00:27;7.63;;;1.40;;
4448;SDS011;2237;51.870;6.160;2023-07-13T02:02:53;6.00;;;1.40;;
4448;SDS011;2237;51.870;6.160;2023-07-13T02:05:20;7.78;;;1.88;;
4448;SDS011;2237;51.870;6.160;2023-07-13T02:07:46;4.55;;;1.40;;
4448;SDS011;2237;51.870;6.160;2023-07-13T02:10:13;5.53;;;1.50;;
4448;SDS011;2237;51.870;6.160;2023-07-13T02:12:40;4.07;;;1.40;;
4448;SDS011;2237;51.870;6.160;2023-07-13T02:15:08;5.18;;;1.27;;
4448;SDS011;2237;51.870;6.160;2023-07-13T02:17:35;5.57;;;1.27;;
4448;SDS011;2237;51.870;6.160;2023-07-13T02:20:03;6.15;;;1.33;;
4448;SDS011;2237;51.870;6.160;2023-07-13T02:22:30;4.65;;;1.40;;
4448;SDS011;2237;51.870;6.160;2023-07-13T02:24:57;5.85;;;1.25;;
4448;SDS011;2237;51.870;6.160;2023-07-13T02:27:23;6.80;;;1.10;;
4448;SDS011;2237;51.870;6.160;2023-07-13T02:29:50;6.78;;;1.23;;
4448;SDS011;2237;51.870;6.160;2023-07-13T02:32:17;4.53;;;1.13;;
4448;SDS011;2237;51.870;6.160;2023-07-13T02:34:44;6.45;;;1.73;;
4448;SDS011;2237;51.870;6.160;2023-07-13T02:37:11;2.78;;;1.40;;
4448;SDS011;2237;51.870;6.160;2023-07-13T02:39:38;7.07;;;2.03;;
4448;SDS011;2237;51.870;6.160;2023-07-13T02:42:04;7.60;;;1.55;;
4448;SDS011;2237;51.870;6.160;2023-07-13T02:44:31;6.82;;;1.58;;
4448;SDS011;2237;51.870;6.160;2023-07-13T02:46:57;4.70;;;1.45;;
4448;SDS011;2237;51.870;6.160;2023-07-13T02:49:24;6.35;;;1.25;;
4448;SDS011;2237;51.870;6.160;2023-07-13T02:51:51;7.35;;;1.83;;
4448;SDS011;2237;51.870;6.160;2023-07-13T02:54:17;3.90;;;1.30;;
4448;SDS011;2237;51.870;6.160;2023-07-13T02:56:43;6.88;;;1.58;;
4448;SDS011;2237;51.870;6.160;2023-07-13T02:59:10;4.28;;;1.27;;
4448;SDS011;2237;51.870;6.160;2023-07-13T03:01:37;4.30;;;1.45;;
4448;SDS011;2237;51.870;6.160;2023-07-13T03:04:03;5.60;;;1.20;;
4448;SDS011;2237;51.870;6.160;2023-07-13T03:06:31;6.25;;;1.40;;
4448;SDS011;2237;51.870;6.160;2023-07-13T03:08:59;4.97;;;1.30;;
4448;SDS011;2237;51.870;6.160;2023-07-13T03:11:26;7.68;;;1.95;;
4448;SDS011;2237;51.870;6.160;2023-07-13T03:13:52;3.80;;;1.20;;
4448;SDS011;2237;51.870;6.160;2023-07-13T03:16:19;8.68;;;2.25;;
4448;SDS011;2237;51.870;6.160;2023-07-13T03:18:47;7.10;;;1.80;;
4448;SDS011;2237;51.870;6.160;2023-07-13T03:21:14;5.97;;;1.52;;
4448;SDS011;2237;51.870;6.160;2023-07-13T03:23:41;4.18;;;1.30;;
4448;SDS011;2237;51.870;6.160;2023-07-13T03:26:17;8.45;;;2.00;;
4448;SDS011;2237;51.870;6.160;2023-07-13T03:28:45;4.82;;;1.63;;
4448;SDS011;2237;51.870;6.160;2023-07-13T03:31:13;5.70;;;1.50;;
4448;SDS011;2237;51.870;6.160;2023-07-13T03:33:42;7.43;;;1.90;;
4448;SDS011;2237;51.870;6.160;2023-07-13T03:36:12;7.78;;;1.73;;
4448;SDS011;2237;51.870;6.160;2023-07-13T03:38:42;7.82;;;1.70;;
4448;SDS011;2237;51.870;6.160;2023-07-13T03:41:08;7.35;;;1.77;;
4448;SDS011;2237;51.870;6.160;2023-07-13T03:43:35;6.13;;;1.40;;
4448;SDS011;2237;51.870;6.160;2023-07-13T03:46:01;8.80;;;1.70;;
4448;SDS011;2237;51.870;6.160;2023-07-13T03:48:27;6.53;;;1.98;;
4448;SDS011;2237;51.870;6.160;2023-07-13T03:50:54;5.68;;;1.60;;
4448;SDS011;2237;51.870;6.160;2023-07-13T03:53:20;5.00;;;1.48;;
4448;SDS011;2237;51.870;6.160;2023-07-13T03:55:47;7.57;;;1.80;;
4448;SDS011;2237;51.870;6.160;2023-07-13T03:58:26;4.68;;;1.70;;
4448;SDS011;2237;51.870;6.160;2023-07-13T04:00:54;4.53;;;1.83;;
4448;SDS011;2237;51.870;6.160;2023-07-13T04:03:21;7.28;;;1.85;;
4448;SDS011;2237;51.870;6.160;2023-07-13T04:05:48;6.50;;;1.90;;
4448;SDS011;2237;51.870;6.160;2023-07-13T04:08:14;6.10;;;1.90;;
4448;SDS011;2237;51.870;6.160;2023-07-13T04:10:42;4.47;;;1.55;;
4448;SDS011;2237;51.870;6.160;2023-07-13T04:13:09;4.93;;;2.33;;
4448;SDS011;2237;51.870;6.160;2023-07-13T04:15:35;4.68;;;1.73;;
4448;SDS011;2237;51.870;6.160;2023-07-13T04:18:02;8.70;;;2.38;;
4448;SDS011;2237;51.870;6.160;2023-07-13T04:20:29;8.15;;;2.40;;
4448;SDS011;2237;51.870;6.160;2023-07-13T04:22:56;6.40;;;1.88;;
4448;SDS011;2237;51.870;6.160;2023-07-13T04:25:23;5.25;;;1.90;;
4448;SDS011;2237;51.870;6.160;2023-07-13T04:27:50;6.68;;;1.80;;
4448;SDS011;2237;51.870;6.160;2023-07-13T04:30:17;5.97;;;2.72;;
4448;SDS011;2237;51.870;6.160;2023-07-13T04:32:43;6.00;;;1.80;;
4448;SDS011;2237;51.870;6.160;2023-07-13T04:35:10;6.45;;;2.38;;
4448;SDS011;2237;51.870;6.160;2023-07-13T04:37:36;8.60;;;1.83;;
4448;SDS011;2237;51.870;6.160;2023-07-13T04:40:02;6.00;;;1.95;;
4448;SDS011;2237;51.870;6.160;2023-07-13T04:42:30;6.90;;;1.92;;
4448;SDS011;2237;51.870;6.160;2023-07-13T04:44:56;4.85;;;1.45;;
4448;SDS011;2237;51.870;6.160;2023-07-13T04:47:22;12.10;;;2.40;;
4448;SDS011;2237;51.870;6.160;2023-07-13T04:49:49;6.57;;;1.88;;
4448;SDS011;2237;51.870;6.160;2023-07-13T04:52:15;4.05;;;1.83;;
4448;SDS011;2237;51.870;6.160;2023-07-13T04:54:42;8.30;;;1.90;;
4448;SDS011;2237;51.870;6.160;2023-07-13T04:57:08;9.60;;;2.10;;
4448;SDS011;2237;51.870;6.160;2023-07-13T04:59:35;8.80;;;1.95;;
4448;SDS011;2237;51.870;6.160;2023-07-13T05:02:01;8.32;;;2.13;;
4448;SDS011;2237;51.870;6.160;2023-07-13T05:04:28;5.95;;;2.30;;
4448;SDS011;2237;51.870;6.160;2023-07-13T05:06:54;6.65;;;2.10;;
4448;SDS011;2237;51.870;6.160;2023-07-13T05:09:21;11.13;;;2.55;;
4448;SDS011;2237;51.870;6.160;2023-07-13T05:11:47;10.68;;;2.45;;
4448;SDS011;2237;51.870;6.160;2023-07-13T05:14:13;9.95;;;2.38;;
4448;SDS011;2237;51.870;6.160;2023-07-13T05:16:41;9.60;;;2.17;;
4448;SDS011;2237;51.870;6.160;2023-07-13T05:19:08;11.20;;;2.25;;
4448;SDS011;2237;51.870;6.160;2023-07-13T05:21:35;14.73;;;2.40;;
4448;SDS011;2237;51.870;6.160;2023-07-13T05:24:02;9.95;;;2.65;;
4448;SDS011;2237;51.870;6.160;2023-07-13T05:26:44;10.70;;;2.90;;
4448;SDS011;2237;51.870;6.160;2023-07-13T05:29:11;10.93;;;2.50;;
4448;SDS011;2237;51.870;6.160;2023-07-13T05:31:37;11.23;;;2.67;;
4448;SDS011;2237;51.870;6.160;2023-07-13T05:34:06;9.35;;;2.80;;
4448;SDS011;2237;51.870;6.160;2023-07-13T05:36:33;9.07;;;2.03;;
4448;SDS011;2237;51.870;6.160;2023-07-13T05:38:59;7.43;;;2.25;;
4448;SDS011;2237;51.870;6.160;2023-07-13T05:41:26;12.98;;;3.70;;
4448;SDS011;2237;51.870;6.160;2023-07-13T05:43:52;10.90;;;2.70;;
4448;SDS011;2237;51.870;6.160;2023-07-13T05:46:19;8.43;;;2.42;;
4448;SDS011;2237;51.870;6.160;2023-07-13T05:48:45;10.10;;;2.45;;
4448;SDS011;2237;51.870;6.160;2023-07-13T05:51:11;10.13;;;3.53;;
4448;SDS011;2237;51.870;6.160;2023-07-13T05:53:38;10.52;;;2.92;;
4448;SDS011;2237;51.870;6.160;2023-07-13T05:56:05;11.32;;;3.67;;
4448;SDS011;2237;51.870;6.160;2023-07-13T05:58:31;13.18;;;4.35;;
4448;SDS011;2237;51.870;6.160;2023-07-13T06:01:02;16.98;;;4.35;;
4448;SDS011;2237;51.870;6.160;2023-07-13T06:03:31;12.00;;;5.25;;
4448;SDS011;2237;51.870;6.160;2023-07-13T06:05:58;13.57;;;4.25;;
4448;SDS011;2237;51.870;6.160;2023-07-13T06:08:26;11.65;;;4.40;;
4448;SDS011;2237;51.870;6.160;2023-07-13T06:10:53;12.60;;;4.72;;
4448;SDS011;2237;51.870;6.160;2023-07-13T06:13:20;15.65;;;5.80;;
4448;SDS011;2237;51.870;6.160;2023-07-13T06:15:49;13.07;;;5.38;;
4448;SDS011;2237;51.870;6.160;2023-07-13T06:18:16;15.63;;;4.82;;
4448;SDS011;2237;51.870;6.160;2023-07-13T06:20:42;16.40;;;5.65;;
4448;SDS011;2237;51.870;6.160;2023-07-13T06:23:09;21.70;;;6.57;;
4448;SDS011;2237;51.870;6.160;2023-07-13T06:25:35;11.95;;;5.35;;
4448;SDS011;2237;51.870;6.160;2023-07-13T06:28:02;16.60;;;6.15;;
4448;SDS011;2237;51.870;6.160;2023-07-13T06:30:28;18.27;;;6.47;;
4448;SDS011;2237;51.870;6.160;2023-07-13T06:32:54;12.95;;;5.28;;
4448;SDS011;2237;51.870;6.160;2023-07-13T06:35:21;23.08;;;7.50;;
4448;SDS011;2237;51.870;6.160;2023-07-13T06:37:48;23.23;;;7.88;;
4448;SDS011;2237;51.870;6.160;2023-07-13T06:40:14;21.83;;;7.47;;
4448;SDS011;2237;51.870;6.160;2023-07-13T06:42:41;23.52;;;7.20;;
4448;SDS011;2237;51.870;6.160;2023-07-13T06:45:07;17.48;;;7.22;;
4448;SDS011;2237;51.870;6.160;2023-07-13T06:47:34;21.27;;;7.18;;
4448;SDS011;2237;51.870;6.160;2023-07-13T06:50:00;19.00;;;7.13;;
4448;SDS011;2237;51.870;6.160;2023-07-13T06:52:27;25.92;;;6.60;;
4448;SDS011;2237;51.870;6.160;2023-07-13T06:54:54;16.20;;;6.53;;
4448;SDS011;2237;51.870;6.160;2023-07-13T06:57:20;15.52;;;6.53;;
4448;SDS011;2237;51.870;6.160;2023-07-13T06:59:46;21.42;;;7.80;;
4448;SDS011;2237;51.870;6.160;2023-07-13T07:02:13;15.20;;;5.57;;
4448;SDS011;2237;51.870;6.160;2023-07-13T07:04:39;17.40;;;7.60;;
4448;SDS011;2237;51.870;6.160;2023-07-13T07:07:05;17.60;;;6.93;;
4448;SDS011;2237;51.870;6.160;2023-07-13T07:09:32;20.00;;;8.02;;
4448;SDS011;2237;51.870;6.160;2023-07-13T07:11:58;22.55;;;8.00;;
4448;SDS011;2237;51.870;6.160;2023-07-13T07:14:30;17.48;;;6.20;;
4448;SDS011;2237;51.870;6.160;2023-07-13T07:16:56;18.42;;;6.60;;
4448;SDS011;2237;51.870;6.160;2023-07-13T07:19:25;15.75;;;6.30;;
4448;SDS011;2237;51.870;6.160;2023-07-13T07:21:52;16.73;;;7.43;;
4448;SDS011;2237;51.870;6.160;2023-07-13T07:24:18;22.05;;;8.27;;
4448;SDS011;2237;51.870;6.160;2023-07-13T07:26:45;19.70;;;8.88;;
4448;SDS011;2237;51.870;6.160;2023-07-13T07:29:14;16.05;;;7.60;;
4448;SDS011;2237;51.870;6.160;2023-07-13T07:31:44;22.58;;;8.88;;
4448;SDS011;2237;51.870;6.160;2023-07-13T07:34:13;16.95;;;7.40;;
4448;SDS011;2237;51.870;6.160;2023-07-13T07:36:39;21.75;;;8.27;;
4448;SDS011;2237;51.870;6.160;2023-07-13T07:39:09;16.02;;;6.50;;
4448;SDS011;2237;51.870;6.160;2023-07-13T07:41:35;19.75;;;8.20;;
4448;SDS011;2237;51.870;6.160;2023-07-13T07:44:05;16.92;;;7.40;;
4448;SDS011;2237;51.870;6.160;2023-07-13T07:46:33;19.95;;;7.93;;
4448;SDS011;2237;51.870;6.160;2023-07-13T07:49:00;19.73;;;7.97;;
4448;SDS011;2237;51.870;6.160;2023-07-13T07:51:26;19.30;;;7.45;;
4448;SDS011;2237;51.870;6.160;2023-07-13T07:53:53;21.48;;;7.95;;
4448;SDS011;2237;51.870;6.160;2023-07-13T07:56:20;18.65;;;7.90;;
4448;SDS011;2237;51.870;6.160;2023-07-13T07:58:49;19.75;;;7.47;;
4448;SDS011;2237;51.870;6.160;2023-07-13T08:01:18;17.75;;;7.88;;
4448;SDS011;2237;51.870;6.160;2023-07-13T08:03:47;17.50;;;6.40;;
4448;SDS011;2237;51.870;6.160;2023-07-13T08:06:17;15.73;;;5.85;;
4448;SDS011;2237;51.870;6.160;2023-07-13T08:08:48;20.40;;;8.30;;
4448;SDS011;2237;51.870;6.160;2023-07-13T08:11:15;22.40;;;7.20;;
4448;SDS011;2237;51.870;6.160;2023-07-13T08:13:45;17.33;;;6.50;;
4448;SDS011;2237;51.870;6.160;2023-07-13T08:16:12;14.70;;;6.80;;
4448;SDS011;2237;51.870;6.160;2023-07-13T08:18:38;20.38;;;6.63;;
4448;SDS011;2237;51.870;6.160;2023-07-13T08:21:05;12.95;;;6.45;;
4448;SDS011;2237;51.870;6.160;2023-07-13T08:23:33;14.23;;;6.63;;
4448;SDS011;2237;51.870;6.160;2023-07-13T08:26:01;15.30;;;6.95;;
4448;SDS011;2237;51.870;6.160;2023-07-13T08:28:28;19.52;;;7.28;;
4448;SDS011;2237;51.870;6.160;2023-07-13T08:30:55;18.98;;;7.13;;
4448;SDS011;2237;51.870;6.160;2023-07-13T08:33:21;15.40;;;6.35;;
4448;SDS011;2237;51.870;6.160;2023-07-13T08:35:51;10.87;;;4.80;;
4448;SDS011;2237;51.870;6.160;2023-07-13T08:38:18;13.43;;;6.38;;
4448;SDS011;2237;51.870;6.160;2023-07-13T08:40:45;18.35;;;7.20;;
4448;SDS011;2237;51.870;6.160;2023-07-13T08:43:18;9.98;;;5.00;;
4448;SDS011;2237;51.870;6.160;2023-07-13T08:45:50;11.88;;;5.38;;
4448;SDS011;2237;51.870;6.160;2023-07-13T08:51:09;14.80;;;6.30;;
4448;SDS011;2237;51.870;6.160;2023-07-13T08:53:38;18.67;;;6.53;;
4448;SDS011;2237;51.870;6.160;2023-07-13T08:56:16;13.45;;;5.68;;
4448;SDS011;2237;51.870;6.160;2023-07-13T08:58:45;20.15;;;5.85;;
4448;SDS011;2237;51.870;6.160;2023-07-13T09:03:46;14.20;;;6.65;;
4448;SDS011;2237;51.870;6.160;2023-07-13T09:06:17;14.52;;;6.10;;
4448;SDS011;2237;51.870;6.160;2023-07-13T09:16:37;12.75;;;6.03;;
4448;SDS011;2237;51.870;6.160;2023-07-13T09:19:06;17.77;;;6.05;;
4448;SDS011;2237;51.870;6.160;2023-07-13T09:21:37;13.07;;;5.93;;
4448;SDS011;2237;51.870;6.160;2023-07-13T09:26:53;16.50;;;6.45;;
4448;SDS011;2237;51.870;6.160;2023-07-13T09:29:24;15.63;;;6.15;;
4448;SDS011;2237;51.870;6.160;2023-07-13T09:31:55;12.13;;;4.63;;
4448;SDS011;2237;51.870;6.160;2023-07-13T09:34:27;13.80;;;4.70;;
4448;SDS011;2237;51.870;6.160;2023-07-13T09:36:56;11.23;;;5.50;;
4448;SDS011;2237;51.870;6.160;2023-07-13T09:39:33;9.80;;;4.20;;
4448;SDS011;2237;51.870;6.160;2023-07-13T09:42:16;9.25;;;4.05;;
4448;SDS011;2237;51.870;6.160;2023-07-13T09:47:15;11.77;;;4.30;;
4448;SDS011;2237;51.870;6.160;2023-07-13T09:49:43;13.40;;;4.00;;
4448;SDS011;2237;51.870;6.160;2023-07-13T09:52:11;11.52;;;3.75;;
4448;SDS011;2237;51.870;6.160;2023-07-13T09:54:38;11.45;;;4.15;;
4448;SDS011;2237;51.870;6.160;2023-07-13T09:57:15;10.40;;;4.25;;
4448;SDS011;2237;51.870;6.160;2023-07-13T09:59:43;9.32;;;4.13;;
4448;SDS011;2237;51.870;6.160;2023-07-13T10:02:32;21.02;;;4.65;;
4448;SDS011;2237;51.870;6.160;2023-07-13T10:05:02;7.28;;;3.65;;
4448;SDS011;2237;51.870;6.160;2023-07-13T10:07:31;8.43;;;3.33;;
4448;SDS011;2237;51.870;6.160;2023-07-13T10:10:12;7.65;;;3.88;;
4448;SDS011;2237;51.870;6.160;2023-07-13T10:12:44;12.05;;;5.90;;
4448;SDS011;2237;51.870;6.160;2023-07-13T10:15:15;11.00;;;5.45;;
4448;SDS011;2237;51.870;6.160;2023-07-13T10:17:51;12.13;;;5.90;;
4448;SDS011;2237;51.870;6.160;2023-07-13T10:20:19;10.00;;;5.10;;
4448;SDS011;2237;51.870;6.160;2023-07-13T10:23:02;13.35;;;5.53;;
4448;SDS011;2237;51.870;6.160;2023-07-13T10:25:36;9.15;;;5.07;;
4448;SDS011;2237;51.870;6.160;2023-07-13T10:30:52;8.63;;;4.28;;
4448;SDS011;2237;51.870;6.160;2023-07-13T10:33:20;7.47;;;3.67;;
4448;SDS011;2237;51.870;6.160;2023-07-13T10:35:47;11.05;;;5.10;;
4448;SDS011;2237;51.870;6.160;2023-07-13T10:38:18;10.02;;;5.22;;
4448;SDS011;2237;51.870;6.160;2023-07-13T10:43:36;10.45;;;5.93;;
4448;SDS011;2237;51.870;6.160;2023-07-13T10:46:10;14.93;;;6.68;;
4448;SDS011;2237;51.870;6.160;2023-07-13T10:48:39;18.10;;;7.30;;
4448;SDS011;2237;51.870;6.160;2023-07-13T10:51:08;14.25;;;7.15;;
4448;SDS011;2237;51.870;6.160;2023-07-13T10:53:38;12.10;;;6.87;;
4448;SDS011;2237;51.870;6.160;2023-07-13T10:59:14;12.98;;;6.80;;
4448;SDS011;2237;51.870;6.160;2023-07-13T11:04:22;13.50;;;6.35;;
4448;SDS011;2237;51.870;6.160;2023-07-13T11:06:52;11.82;;;5.10;;
4448;SDS011;2237;51.870;6.160;2023-07-13T11:09:34;11.27;;;6.45;;
4448;SDS011;2237;51.870;6.160;2023-07-13T11:14:44;13.82;;;6.97;;
4448;SDS011;2237;51.870;6.160;2023-07-13T11:27:52;11.23;;;7.00;;
4448;SDS011;2237;51.870;6.160;2023-07-13T11:30:35;17.23;;;8.45;;
4448;SDS011;2237;51.870;6.160;2023-07-13T11:33:04;15.25;;;8.50;;
4448;SDS011;2237;51.870;6.160;2023-07-13T11:35:36;11.45;;;6.35;;
4448;SDS011;2237;51.870;6.160;2023-07-13T11:38:10;13.13;;;7.10;;
4448;SDS011;2237;51.870;6.160;2023-07-13T11:40:41;16.05;;;8.40;;
4448;SDS011;2237;51.870;6.160;2023-07-13T11:43:12;17.50;;;8.85;;
4448;SDS011;2237;51.870;6.160;2023-07-13T11:45:40;12.88;;;7.72;;
4448;SDS011;2237;51.870;6.160;2023-07-13T11:48:20;11.23;;;6.97;;
4448;SDS011;2237;51.870;6.160;2023-07-13T11:50:53;10.95;;;5.80;;
4448;SDS011;2237;51.870;6.160;2023-07-13T11:55:54;5.75;;;3.63;;
4448;SDS011;2237;51.870;6.160;2023-07-13T11:58:23;11.20;;;4.20;;
4448;SDS011;2237;51.870;6.160;2023-07-13T12:00:51;6.07;;;4.20;;
4448;SDS011;2237;51.870;6.160;2023-07-13T12:03:21;5.72;;;3.42;;
4448;SDS011;2237;51.870;6.160;2023-07-13T12:08:24;4.57;;;3.40;;
4448;SDS011;2237;51.870;6.160;2023-07-13T12:10:56;5.13;;;3.05;;
4448;SDS011;2237;51.870;6.160;2023-07-13T12:13:25;4.18;;;2.92;;
4448;SDS011;2237;51.870;6.160;2023-07-13T12:15:53;4.82;;;2.40;;
4448;SDS011;2237;51.870;6.160;2023-07-13T12:18:21;4.75;;;2.40;;
4448;SDS011;2237;51.870;6.160;2023-07-13T12:20:55;3.63;;;2.22;;
4448;SDS011;2237;51.870;6.160;2023-07-13T12:23:26;5.00;;;2.75;;
4448;SDS011;2237;51.870;6.160;2023-07-13T12:26:00;4.18;;;2.50;;
4448;SDS011;2237;51.870;6.160;2023-07-13T12:28:33;3.17;;;2.15;;
4448;SDS011;2237;51.870;6.160;2023-07-13T12:31:04;4.38;;;2.30;;
4448;SDS011;2237;51.870;6.160;2023-07-13T12:33:33;5.93;;;2.70;;
4448;SDS011;2237;51.870;6.160;2023-07-13T12:36:00;6.25;;;2.70;;
4448;SDS011;2237;51.870;6.160;2023-07-13T12:38:30;5.18;;;2.40;;
4448;SDS011;2237;51.870;6.160;2023-07-13T12:40:57;11.32;;;2.65;;
4448;SDS011;2237;51.870;6.160;2023-07-13T12:43:25;4.15;;;2.58;;
4448;SDS011;2237;51.870;6.160;2023-07-13T12:46:39;3.90;;;2.63;;
4448;SDS011;2237;51.870;6.160;2023-07-13T12:48:52;7.18;;;2.40;;
4448;SDS011;2237;51.870;6.160;2023-07-13T12:51:40;5.55;;;2.40;;
4448;SDS011;2237;51.870;6.160;2023-07-13T12:54:16;9.23;;;2.75;;
4448;SDS011;2237;51.870;6.160;2023-07-13T12:56:44;4.63;;;2.60;;
4448;SDS011;2237;51.870;6.160;2023-07-13T12:59:18;5.10;;;2.88;;
4448;SDS011;2237;51.870;6.160;2023-07-13T13:01:47;5.63;;;3.00;;
4448;SDS011;2237;51.870;6.160;2023-07-13T13:04:15;7.07;;;2.47;;
4448;SDS011;2237;51.870;6.160;2023-07-13T13:06:47;7.55;;;2.75;;
4448;SDS011;2237;51.870;6.160;2023-07-13T13:09:16;6.60;;;3.08;;
4448;SDS011;2237;51.870;6.160;2023-07-13T13:11:44;4.40;;;2.33;;
4448;SDS011;2237;51.870;6.160;2023-07-13T13:14:11;4.78;;;2.72;;
4448;SDS011;2237;51.870;6.160;2023-07-13T13:16:43;5.07;;;2.60;;
4448;SDS011;2237;51.870;6.160;2023-07-13T13:21:43;5.53;;;2.65;;
4448;SDS011;2237;51.870;6.160;2023-07-13T13:24:15;6.00;;;2.65;;
4448;SDS011;2237;51.870;6.160;2023-07-13T13:26:43;5.43;;;2.42;;
4448;SDS011;2237;51.870;6.160;2023-07-13T13:29:12;5.20;;;2.42;;
4448;SDS011;2237;51.870;6.160;2023-07-13T13:31:40;3.95;;;2.00;;
4448;SDS011;2237;51.870;6.160;2023-07-13T13:34:08;6.43;;;2.88;;
4448;SDS011;2237;51.870;6.160;2023-07-13T13:36:36;5.93;;;2.67;;
4448;SDS011;2237;51.870;6.160;2023-07-13T13:39:05;5.68;;;2.33;;
4448;SDS011;2237;51.870;6.160;2023-07-13T13:41:44;5.82;;;2.17;;
4448;SDS011;2237;51.870;6.160;2023-07-13T13:44:10;6.07;;;2.45;;
4448;SDS011;2237;51.870;6.160;2023-07-13T13:46:39;7.18;;;2.22;;
4448;SDS011;2237;51.870;6.160;2023-07-13T13:49:10;7.75;;;2.47;;
4448;SDS011;2237;51.870;6.160;2023-07-13T13:51:40;4.40;;;2.03;;
4448;SDS011;2237;51.870;6.160;2023-07-13T13:54:09;6.82;;;2.80;;
4448;SDS011;2237;51.870;6.160;2023-07-13T13:56:38;6.55;;;2.00;;
4448;SDS011;2237;51.870;6.160;2023-07-13T13:59:04;6.50;;;2.17;;
4448;SDS011;2237;51.870;6.160;2023-07-13T14:01:31;7.13;;;2.25;;
4448;SDS011;2237;51.870;6.160;2023-07-13T14:03:57;4.57;;;2.20;;
4448;SDS011;2237;51.870;6.160;2023-07-13T14:06:25;7.40;;;2.60;;
4448;SDS011;2237;51.870;6.160;2023-07-13T14:08:51;3.78;;;1.80;;
4448;SDS011;2237;51.870;6.160;2023-07-13T14:11:18;4.05;;;1.75;;
4448;SDS011;2237;51.870;6.160;2023-07-13T14:13:52;3.63;;;1.35;;
4448;SDS011;2237;51.870;6.160;2023-07-13T14:16:21;3.20;;;1.30;;
4448;SDS011;2237;51.870;6.160;2023-07-13T14:18:53;3.70;;;1.33;;
4448;SDS011;2237;51.870;6.160;2023-07-13T14:21:22;1.50;;;0.90;;
4448;SDS011;2237;51.870;6.160;2023-07-13T14:23:49;2.80;;;1.17;;
4448;SDS011;2237;51.870;6.160;2023-07-13T14:26:17;3.75;;;1.20;;
4448;SDS011;2237;51.870;6.160;2023-07-13T14:28:47;2.28;;;1.27;;
4448;SDS011;2237;51.870;6.160;2023-07-13T14:31:16;3.83;;;1.30;;
4448;SDS011;2237;51.870;6.160;2023-07-13T14:33:43;4.53;;;1.30;;
4448;SDS011;2237;51.870;6.160;2023-07-13T14:38:43;3.63;;;1.33;;
4448;SDS011;2237;51.870;6.160;2023-07-13T14:41:09;3.90;;;1.30;;
4448;SDS011;2237;51.870;6.160;2023-07-13T14:43:36;5.00;;;2.08;;
4448;SDS011;2237;51.870;6.160;2023-07-13T14:46:02;3.08;;;1.42;;
4448;SDS011;2237;51.870;6.160;2023-07-13T14:48:30;4.78;;;1.63;;
4448;SDS011;2237;51.870;6.160;2023-07-13T14:50:57;3.03;;;1.10;;
4448;SDS011;2237;51.870;6.160;2023-07-13T14:53:25;3.20;;;1.30;;
4448;SDS011;2237;51.870;6.160;2023-07-13T14:55:54;2.22;;;1.27;;
4448;SDS011;2237;51.870;6.160;2023-07-13T14:58:20;3.22;;;1.40;;
4448;SDS011;2237;51.870;6.160;2023-07-13T15:00:46;3.88;;;1.50;;
4448;SDS011;2237;51.870;6.160;2023-07-13T15:03:21;2.13;;;1.25;;
4448;SDS011;2237;51.870;6.160;2023-07-13T15:05:51;3.60;;;1.60;;
4448;SDS011;2237;51.870;6.160;2023-07-13T15:08:19;5.38;;;1.70;;
4448;SDS011;2237;51.870;6.160;2023-07-13T15:10:45;4.40;;;1.77;;
4448;SDS011;2237;51.870;6.160;2023-07-13T15:13:16;3.55;;;2.00;;
4448;SDS011;2237;51.870;6.160;2023-07-13T15:15:49;2.35;;;1.35;;
4448;SDS011;2237;51.870;6.160;2023-07-13T15:18:21;3.22;;;1.02;;
4448;SDS011;2237;51.870;6.160;2023-07-13T15:20:50;4.25;;;1.40;;
4448;SDS011;2237;51.870;6.160;2023-07-13T15:23:18;4.85;;;1.10;;
4448;SDS011;2237;51.870;6.160;2023-07-13T15:25:45;3.50;;;1.10;;
4448;SDS011;2237;51.870;6.160;2023-07-13T15:28:12;4.22;;;1.20;;
4448;SDS011;2237;51.870;6.160;2023-07-13T15:30:40;2.08;;;1.10;;
4448;SDS011;2237;51.870;6.160;2023-07-13T15:33:25;2.95;;;1.23;;
4448;SDS011;2237;51.870;6.160;2023-07-13T15:35:54;4.03;;;1.00;;
4448;SDS011;2237;51.870;6.160;2023-07-13T15:38:23;5.20;;;1.48;;
4448;SDS011;2237;51.870;6.160;2023-07-13T15:40:51;5.07;;;1.45;;
4448;SDS011;2237;51.870;6.160;2023-07-13T15:43:19;4.18;;;2.00;;
4448;SDS011;2237;51.870;6.160;2023-07-13T15:46:05;4.63;;;1.10;;
4448;SDS011;2237;51.870;6.160;2023-07-13T15:48:32;3.55;;;1.60;;
4448;SDS011;2237;51.870;6.160;2023-07-13T15:51:02;7.88;;;1.88;;
4448;SDS011;2237;51.870;6.160;2023-07-13T15:53:31;3.53;;;1.55;;
4448;SDS011;2237;51.870;6.160;2023-07-13T15:56:02;4.35;;;1.55;;
4448;SDS011;2237;51.870;6.160;2023-07-13T15:58:42;5.60;;;1.92;;
4448;SDS011;2237;51.870;6.160;2023-07-13T16:01:09;2.20;;;1.10;;
4448;SDS011;2237;51.870;6.160;2023-07-13T16:03:37;2.65;;;1.30;;
4448;SDS011;2237;51.870;6.160;2023-07-13T16:06:04;4.45;;;1.60;;
4448;SDS011;2237;51.870;6.160;2023-07-13T16:08:40;5.20;;;1.35;;
4448;SDS011;2237;51.870;6.160;2023-07-13T16:11:12;1.90;;;0.70;;
4448;SDS011;2237;51.870;6.160;2023-07-13T16:13:43;1.60;;;0.70;;